createdAt,value
2017-09-02T00:00:17.725Z,69.80
2017-09-02T00:02:46.203Z,69.70
2017-09-02T00:05:14.559Z,69.80
2017-09-02T00:07:42.950Z,69.70
2017-09-02T00:10:11.389Z,69.70
2017-09-02T00:12:39.907Z,69.70
2017-09-02T00:15:08.294Z,69.70
2017-09-02T00:17:36.712Z,69.60
2017-09-02T00:20:05.359Z,69.60
2017-09-02T00:22:33.942Z,69.60
2017-09-02T00:25:02.524Z,70.40
2017-09-02T00:27:30.911Z,70.40
2017-09-02T00:29:59.379Z,70.30
2017-09-02T00:32:27.763Z,70.20
2017-09-02T00:34:56.135Z,70.20
2017-09-02T00:37:24.607Z,70.20
2017-09-02T00:39:53.097Z,70.20
2017-09-02T00:42:21.481Z,70.10
2017-09-02T00:44:49.850Z,70.10
2017-09-02T00:47:18.330Z,70.10
2017-09-02T00:49:46.878Z,70.00
2017-09-02T00:52:15.297Z,70.00
2017-09-02T00:54:43.667Z,69.90
2017-09-02T00:57:12.145Z,70.00
2017-09-02T00:59:40.524Z,69.80
2017-09-02T01:02:09.023Z,69.60
2017-09-02T01:04:37.486Z,69.50
2017-09-02T01:07:05.907Z,69.50
2017-09-02T01:09:34.278Z,69.50
2017-09-02T01:12:02.694Z,69.40
2017-09-02T01:14:31.179Z,69.30
2017-09-02T01:16:59.588Z,69.40
2017-09-02T01:19:28.005Z,69.30
2017-09-02T01:21:56.680Z,69.30
2017-09-02T01:24:25.041Z,69.30
2017-09-02T01:26:53.534Z,69.30
2017-09-02T01:29:21.992Z,69.20
2017-09-02T01:31:50.380Z,69.20
2017-09-02T01:34:18.782Z,69.20
2017-09-02T01:36:47.214Z,69.20
2017-09-02T01:39:15.800Z,69.20
2017-09-02T01:41:44.275Z,69.20
2017-09-02T01:44:14.168Z,69.10
2017-09-02T01:46:42.552Z,69.10
2017-09-02T01:49:10.943Z,69.10
2017-09-02T01:51:39.299Z,69.00
2017-09-02T01:54:07.688Z,69.00
2017-09-02T01:56:36.124Z,69.00
2017-09-02T01:59:04.508Z,69.00
2017-09-02T02:01:32.937Z,68.70
2017-09-02T02:04:01.516Z,69.10
2017-09-02T02:06:29.886Z,69.00
2017-09-02T02:08:58.378Z,69.00
2017-09-02T02:11:26.821Z,69.00
2017-09-02T02:13:55.204Z,69.00
2017-09-02T02:16:23.559Z,69.00
2017-09-02T02:18:51.949Z,69.00
2017-09-02T02:21:20.351Z,68.90
2017-09-02T02:23:48.752Z,69.10
2017-09-02T02:26:17.108Z,69.70
2017-09-02T02:28:45.487Z,69.00
2017-09-02T02:31:14.005Z,69.00
2017-09-02T02:33:42.437Z,69.00
2017-09-02T02:36:10.827Z,69.00
2017-09-02T02:38:39.204Z,69.00
2017-09-02T02:41:07.578Z,69.70
2017-09-02T02:43:36.073Z,69.00
2017-09-02T02:46:05.032Z,69.00
2017-09-02T02:48:33.436Z,69.00
2017-09-02T02:51:01.792Z,69.00
2017-09-02T02:53:30.204Z,68.90
2017-09-02T02:55:58.675Z,69.00
2017-09-02T02:58:27.056Z,68.80
2017-09-02T03:00:55.419Z,68.80
2017-09-02T03:03:23.788Z,68.80
2017-09-02T03:05:52.148Z,68.70
2017-09-02T03:08:20.523Z,68.70
2017-09-02T03:10:48.956Z,68.70
2017-09-02T03:13:17.350Z,68.70
2017-09-02T03:15:45.799Z,68.70
2017-09-02T03:18:14.220Z,68.70
2017-09-02T03:20:42.588Z,68.70
2017-09-02T03:23:11.017Z,68.70
2017-09-02T03:25:39.395Z,68.60
2017-09-02T03:28:07.788Z,68.70
2017-09-02T03:30:36.168Z,68.70
2017-09-02T03:33:04.566Z,68.60
2017-09-02T03:35:32.954Z,68.60
2017-09-02T03:38:01.441Z,68.60
2017-09-02T03:40:29.880Z,68.60
2017-09-02T03:42:58.337Z,68.50
2017-09-02T03:45:26.924Z,68.50
2017-09-02T03:47:55.427Z,68.50
2017-09-02T03:50:23.803Z,68.50
2017-09-02T03:52:52.178Z,68.50
2017-09-02T03:55:20.535Z,68.40
2017-09-02T03:57:48.929Z,68.40
2017-09-02T04:00:18.346Z,68.40
2017-09-02T04:02:46.817Z,68.50
2017-09-02T04:05:15.185Z,68.50
2017-09-02T04:07:43.564Z,68.50
2017-09-02T04:10:11.949Z,68.40
2017-09-02T04:12:40.834Z,68.40
2017-09-02T04:15:09.220Z,68.40
2017-09-02T04:17:37.618Z,68.40
2017-09-02T04:20:05.976Z,68.40
2017-09-02T04:22:34.351Z,68.30
2017-09-02T04:25:02.737Z,68.30
2017-09-02T04:27:31.134Z,68.30
2017-09-02T04:29:59.501Z,68.30
2017-09-02T04:32:27.888Z,68.30
2017-09-02T04:34:56.282Z,68.30
2017-09-02T04:37:24.778Z,68.30
2017-09-02T04:39:53.450Z,68.30
2017-09-02T04:42:21.987Z,68.40
2017-09-02T04:44:50.418Z,69.10
2017-09-02T04:47:18.782Z,68.40
2017-09-02T04:49:47.221Z,68.70
2017-09-02T04:52:15.700Z,68.50
2017-09-02T04:54:44.106Z,68.40
2017-09-02T04:57:12.482Z,68.40
2017-09-02T04:59:40.996Z,68.30
2017-09-02T05:02:09.401Z,68.30
2017-09-02T05:04:37.898Z,68.40
2017-09-02T05:07:06.342Z,68.50
2017-09-02T05:09:34.737Z,68.50
2017-09-02T05:12:03.145Z,68.50
2017-09-02T05:14:31.550Z,68.30
2017-09-02T05:17:00.094Z,68.40
2017-09-02T05:19:28.574Z,68.40
2017-09-02T05:21:56.952Z,68.30
2017-09-02T05:24:25.336Z,68.30
2017-09-02T05:26:53.721Z,68.30
2017-09-02T05:29:22.118Z,68.20
2017-09-02T05:31:50.561Z,68.30
2017-09-02T05:34:18.979Z,68.30
2017-09-02T05:36:47.361Z,68.20
2017-09-02T05:39:15.754Z,68.30
2017-09-02T05:41:44.981Z,68.60
2017-09-02T05:44:13.349Z,68.50
2017-09-02T05:46:41.726Z,68.70
2017-09-02T05:49:10.123Z,69.20
2017-09-02T05:51:38.529Z,69.50
2017-09-02T05:54:07.034Z,70.30
2017-09-02T05:56:35.492Z,70.20
2017-09-02T05:59:03.891Z,70.20
2017-09-02T06:01:32.260Z,70.80
2017-09-02T06:04:00.735Z,71.00
2017-09-02T06:06:29.179Z,71.20
2017-09-02T06:08:57.559Z,71.20
2017-09-02T06:11:25.935Z,70.90
2017-09-02T06:13:54.402Z,70.90
2017-09-02T06:16:22.813Z,70.80
2017-09-02T06:18:51.309Z,71.30
2017-09-02T06:21:19.704Z,71.50
2017-09-02T06:23:48.259Z,70.40
2017-09-02T06:26:16.648Z,69.80
2017-09-02T06:28:45.878Z,69.20
2017-09-02T06:31:14.321Z,68.90
2017-09-02T06:33:42.847Z,69.00
2017-09-02T06:36:11.244Z,68.30
2017-09-02T06:38:40.090Z,68.20
2017-09-02T06:41:08.489Z,68.20
2017-09-02T06:43:36.876Z,67.70
2017-09-02T06:46:05.374Z,67.50
2017-09-02T06:48:33.851Z,67.20
2017-09-02T06:51:02.274Z,66.90
2017-09-02T06:53:30.662Z,66.80
2017-09-02T06:55:59.063Z,66.40
2017-09-02T06:58:27.465Z,64.90
2017-09-02T07:00:55.943Z,63.50
2017-09-02T07:03:24.348Z,62.40
2017-09-02T07:05:52.755Z,61.90
2017-09-02T07:08:21.440Z,62.60
2017-09-02T07:10:50.615Z,61.80
2017-09-02T07:13:19.005Z,61.60
2017-09-02T07:15:46.770Z,61.90
2017-09-02T09:51:31.145Z,65.50
2017-09-02T09:53:59.548Z,57.50
2017-09-02T09:56:28.029Z,57.30
2017-09-02T09:58:56.404Z,56.20
2017-09-02T10:01:24.801Z,52.60
2017-09-02T10:03:53.240Z,58.00
2017-09-02T10:06:21.672Z,56.30
2017-09-02T10:08:50.097Z,53.90
2017-09-02T10:11:18.521Z,53.50
2017-09-02T10:13:46.930Z,55.40
2017-09-02T10:16:15.368Z,56.60
2017-09-02T10:18:43.871Z,60.40
2017-09-02T10:21:12.378Z,58.60
2017-09-02T10:23:40.801Z,54.10
2017-09-02T10:26:09.247Z,51.20
2017-09-02T10:28:37.705Z,50.70
2017-09-02T10:31:06.231Z,52.00
2017-09-02T10:33:34.635Z,50.50
2017-09-02T10:36:03.036Z,54.70
2017-09-02T10:38:31.429Z,53.70
2017-09-02T10:40:59.886Z,54.20
2017-09-02T10:43:28.292Z,50.00
2017-09-02T10:45:56.786Z,49.90
2017-09-02T10:48:25.184Z,48.20
2017-09-02T10:50:53.626Z,48.60
2017-09-02T10:53:22.020Z,51.20
2017-09-02T10:55:50.497Z,49.80
2017-09-02T10:58:18.919Z,47.60
2017-09-02T11:00:47.340Z,54.20
2017-09-02T11:03:16.669Z,49.10
2017-09-02T11:05:45.079Z,47.10
2017-09-02T11:08:13.539Z,50.40
2017-09-02T11:10:42.125Z,49.90
2017-09-02T11:13:10.722Z,49.70
2017-09-02T11:15:39.143Z,50.10
2017-09-02T11:18:07.526Z,47.30
2017-09-02T11:20:35.946Z,48.90
2017-09-02T11:23:04.454Z,51.00
2017-09-02T11:25:32.861Z,48.70
2017-09-02T11:28:01.261Z,49.90
2017-09-02T11:30:29.803Z,51.50
2017-09-02T11:32:58.243Z,54.40
2017-09-02T11:35:26.677Z,51.10
2017-09-02T11:37:56.093Z,49.20
2017-09-02T11:40:24.507Z,49.40
2017-09-02T11:42:52.873Z,51.20
2017-09-02T11:45:21.327Z,49.90
2017-09-02T11:47:49.827Z,48.10
2017-09-02T11:50:18.240Z,46.90
2017-09-02T11:52:46.623Z,48.30
2017-09-02T11:55:15.009Z,47.90
2017-09-02T11:57:43.399Z,50.30
2017-09-02T12:00:11.821Z,51.50
2017-09-02T12:02:40.315Z,49.40
2017-09-02T12:05:08.872Z,53.00
2017-09-02T12:07:37.287Z,47.80
2017-09-02T12:10:06.757Z,51.10
2017-09-02T12:12:37.042Z,47.70
2017-09-02T12:15:12.117Z,50.00
2017-09-02T12:17:41.555Z,47.10
2017-09-02T12:20:12.482Z,49.10
2017-09-02T12:22:41.945Z,49.50
2017-09-02T12:25:10.395Z,53.00
2017-09-02T12:27:38.904Z,52.40
2017-09-02T12:30:07.399Z,51.70
2017-09-02T12:32:36.070Z,51.10
2017-09-02T12:35:04.682Z,51.00
2017-09-02T12:37:34.306Z,51.30
2017-09-02T12:40:12.811Z,50.20
2017-09-02T12:42:41.768Z,52.40
2017-09-02T12:45:10.249Z,56.90
2017-09-02T12:47:41.195Z,58.80
2017-09-02T12:50:10.055Z,58.70
2017-09-02T12:52:41.203Z,62.10
2017-09-02T12:55:09.761Z,59.30
2017-09-02T12:57:38.379Z,54.60
2017-09-02T13:00:06.841Z,51.50
2017-09-02T13:02:35.250Z,52.40
2017-09-02T13:05:03.728Z,51.30
2017-09-02T13:07:32.252Z,51.90
2017-09-02T13:10:00.661Z,50.90
2017-09-02T13:12:29.065Z,55.50
2017-09-02T13:14:57.507Z,53.70
2017-09-02T13:17:25.939Z,56.50
2017-09-02T13:19:54.374Z,54.70
2017-09-02T13:22:22.777Z,55.70
2017-09-02T13:24:51.190Z,55.90
2017-09-02T13:27:19.666Z,55.40
2017-09-02T13:29:48.084Z,57.50
2017-09-02T13:32:16.609Z,54.60
2017-09-02T13:34:45.185Z,53.90
2017-09-02T13:37:13.595Z,54.30
2017-09-02T13:39:41.981Z,55.60
2017-09-02T13:42:10.459Z,56.20
2017-09-02T13:44:38.834Z,53.80
2017-09-02T13:47:07.334Z,53.60
2017-09-02T13:49:35.765Z,51.00
2017-09-02T13:52:04.182Z,50.40
2017-09-02T13:54:32.582Z,49.00
2017-09-02T13:57:01.026Z,48.80
2017-09-02T13:59:29.461Z,49.60
2017-09-02T14:01:58.321Z,49.10
2017-09-02T14:04:26.781Z,50.80
2017-09-02T14:06:55.172Z,47.40
2017-09-02T14:09:23.706Z,48.80
2017-09-02T14:11:52.194Z,49.40
2017-09-02T14:14:20.751Z,50.90
2017-09-02T14:16:49.147Z,49.40
2017-09-02T14:19:17.546Z,49.90
2017-09-02T14:21:45.934Z,53.90
2017-09-02T14:24:14.344Z,52.20
2017-09-02T14:26:42.735Z,51.90
2017-09-02T14:29:11.171Z,51.60
2017-09-02T14:31:39.559Z,54.00
2017-09-02T14:34:07.966Z,53.20
2017-09-02T14:36:36.548Z,53.40
2017-09-02T14:39:05.185Z,51.80
2017-09-02T14:41:33.575Z,52.10
2017-09-02T14:44:02.022Z,51.30
2017-09-02T14:46:30.425Z,50.00
2017-09-02T14:48:58.900Z,51.50
2017-09-02T14:51:27.380Z,50.20
2017-09-02T14:53:55.891Z,51.90
2017-09-02T14:56:24.275Z,50.00
2017-09-02T14:58:52.825Z,49.70
2017-09-02T15:01:21.239Z,53.10
2017-09-02T15:03:49.709Z,51.80
2017-09-02T15:06:18.159Z,55.80
2017-09-02T15:08:46.600Z,56.20
2017-09-02T15:11:14.991Z,56.30
2017-09-02T15:13:43.452Z,57.70
2017-09-02T15:16:11.941Z,57.10
2017-09-02T15:18:40.341Z,58.40
2017-09-02T15:21:08.731Z,57.70
2017-09-02T15:23:37.136Z,60.40
2017-09-02T15:26:05.568Z,59.10
2017-09-02T15:28:34.039Z,58.90
2017-09-02T15:31:02.522Z,59.70
2017-09-02T15:33:30.939Z,59.50
2017-09-02T15:35:59.335Z,58.80
2017-09-02T15:38:27.762Z,57.10
2017-09-02T15:40:56.163Z,57.10
2017-09-02T15:43:24.572Z,57.70
2017-09-02T15:45:53.007Z,59.60
2017-09-02T15:48:21.523Z,60.70
2017-09-02T15:50:49.968Z,59.30
2017-09-02T15:53:18.876Z,58.00
2017-09-02T15:55:47.279Z,56.70
2017-09-02T15:58:15.730Z,57.00
2017-09-02T16:00:44.135Z,55.50
2017-09-02T16:03:12.549Z,55.60
2017-09-02T16:05:40.982Z,55.80
2017-09-02T16:08:09.460Z,56.10
2017-09-02T16:10:38.011Z,55.60
2017-09-02T16:13:06.418Z,57.50
2017-09-02T16:15:35.200Z,58.90
2017-09-02T16:18:03.951Z,57.60
2017-09-02T16:20:32.427Z,55.70
2017-09-02T16:23:00.854Z,55.70
2017-09-02T16:25:29.245Z,56.70
2017-09-02T16:27:57.645Z,57.60
2017-09-02T16:30:26.040Z,59.30
2017-09-02T16:32:54.513Z,60.30
2017-09-02T16:35:23.054Z,59.10
2017-09-02T16:37:51.466Z,59.10
2017-09-02T16:40:19.956Z,59.40
2017-09-02T16:42:48.396Z,60.20
2017-09-02T16:45:16.863Z,60.90
2017-09-02T16:47:45.328Z,60.60
2017-09-02T16:50:13.730Z,61.60
2017-09-02T16:52:43.081Z,61.80
2017-09-02T16:55:11.452Z,63.30
2017-09-02T16:57:40.015Z,61.40
2017-09-02T17:00:08.558Z,63.50
2017-09-02T17:02:36.987Z,63.00
2017-09-02T17:05:05.404Z,64.50
2017-09-02T17:07:33.864Z,63.80
2017-09-02T17:10:02.373Z,64.90
2017-09-02T17:12:30.827Z,65.20
2017-09-02T17:14:59.241Z,64.50
2017-09-02T17:17:28.052Z,65.40
2017-09-02T17:19:56.548Z,66.70
2017-09-02T17:22:24.996Z,66.40
2017-09-02T17:24:53.536Z,67.70
2017-09-02T17:27:22.024Z,68.20
2017-09-02T17:29:50.602Z,69.60
2017-09-02T17:32:19.005Z,69.70
2017-09-02T17:34:47.494Z,69.60
2017-09-02T17:37:16.014Z,69.20
2017-09-02T17:39:44.473Z,70.30
2017-09-02T17:42:12.936Z,70.00
2017-09-02T17:44:41.362Z,69.90
2017-09-02T17:47:10.382Z,69.30
2017-09-02T17:49:38.780Z,69.90
2017-09-02T17:52:07.238Z,71.80
2017-09-02T17:54:35.614Z,71.20
2017-09-02T17:57:04.058Z,72.20
2017-09-02T17:59:32.460Z,73.40
2017-09-02T18:02:00.869Z,72.60
2017-09-02T18:04:29.330Z,74.70
2017-09-02T18:06:59.225Z,72.90
2017-09-02T18:09:28.100Z,71.90
2017-09-02T18:11:56.508Z,74.90
2017-09-02T18:14:26.164Z,75.10
2017-09-02T18:16:54.825Z,74.20
2017-09-02T18:19:23.338Z,74.20
2017-09-02T18:21:51.751Z,73.50
2017-09-02T18:24:20.296Z,73.90
2017-09-02T18:26:48.875Z,76.00
2017-09-02T18:29:17.265Z,74.80
2017-09-02T18:31:45.697Z,77.20
2017-09-02T18:34:14.106Z,75.90
2017-09-02T18:36:42.524Z,75.60
2017-09-02T18:39:10.940Z,77.40
2017-09-02T18:41:39.327Z,76.10
2017-09-02T18:44:07.717Z,77.10
2017-09-02T18:46:36.110Z,76.70
2017-09-02T18:49:04.576Z,78.50
2017-09-02T18:51:32.953Z,79.20
2017-09-02T18:54:01.402Z,81.00
2017-09-02T18:56:29.817Z,83.20
2017-09-02T18:58:58.316Z,84.40
2017-09-02T19:01:26.933Z,85.70
2017-09-02T19:03:55.463Z,86.60
2017-09-02T19:06:24.051Z,87.30
2017-09-02T19:08:52.456Z,87.80
2017-09-02T19:11:21.318Z,88.40
2017-09-02T19:13:49.895Z,89.20
2017-09-02T19:16:18.265Z,89.20
2017-09-02T19:18:46.652Z,90.00
2017-09-02T19:21:15.069Z,89.10
2017-09-02T19:23:44.270Z,90.50
2017-09-02T19:26:13.621Z,90.50
2017-09-02T19:28:42.344Z,90.60
2017-09-02T19:31:10.796Z,91.00
2017-09-02T19:33:39.937Z,91.30
2017-09-02T19:36:08.335Z,91.80
2017-09-02T19:38:37.393Z,92.10
2017-09-02T19:41:05.806Z,92.30
2017-09-02T19:43:34.301Z,92.30
2017-09-02T19:46:02.748Z,92.30
2017-09-02T19:48:31.212Z,92.10
2017-09-02T19:50:59.585Z,92.30
2017-09-02T19:53:27.977Z,92.50
2017-09-02T19:55:56.362Z,92.40
2017-09-02T19:58:25.320Z,92.50
2017-09-02T20:00:54.491Z,92.70
2017-09-02T20:03:22.888Z,92.50
2017-09-02T20:05:51.614Z,92.70
2017-09-02T20:08:20.045Z,92.50
2017-09-02T20:10:48.519Z,92.30
2017-09-02T20:13:16.936Z,92.80
2017-09-02T20:15:45.336Z,92.50
2017-09-02T20:18:13.759Z,92.50
2017-09-02T20:20:42.138Z,92.60
2017-09-02T20:23:10.668Z,92.80
2017-09-02T20:25:39.188Z,92.90
2017-09-02T20:28:07.649Z,93.00
2017-09-02T20:30:36.102Z,92.80
2017-09-02T20:33:04.539Z,93.10
2017-09-02T20:35:32.986Z,93.30
2017-09-02T20:38:01.385Z,93.20
2017-09-02T20:40:30.436Z,93.30
2017-09-02T20:42:58.820Z,93.60
2017-09-02T20:45:27.247Z,93.60
2017-09-02T20:47:55.726Z,93.60
2017-09-02T20:50:24.109Z,93.60
2017-09-02T20:52:52.512Z,93.30
2017-09-02T20:55:20.916Z,93.40
2017-09-02T20:57:49.301Z,93.20
2017-09-02T21:00:17.734Z,93.40
2017-09-02T21:02:46.163Z,93.60
2017-09-02T21:05:14.571Z,93.60
2017-09-02T21:07:42.975Z,93.80
2017-09-02T21:10:11.386Z,94.10
2017-09-02T21:12:39.899Z,94.10
2017-09-02T21:15:08.289Z,93.80
2017-09-02T21:17:36.679Z,93.40
2017-09-02T21:20:05.160Z,93.70
2017-09-02T21:22:33.614Z,93.90
2017-09-02T21:25:02.034Z,93.70
2017-09-02T21:27:30.498Z,94.10
2017-09-02T21:29:58.894Z,93.90
2017-09-02T21:32:27.315Z,94.20
2017-09-02T21:34:55.760Z,93.90
2017-09-02T21:37:24.203Z,94.10
2017-09-02T21:39:52.660Z,94.10
2017-09-02T21:42:21.096Z,94.00
2017-09-02T21:44:49.542Z,94.50
2017-09-02T21:47:17.953Z,94.30
2017-09-02T21:49:46.324Z,93.90
2017-09-02T21:52:14.733Z,94.40
2017-09-02T21:54:43.195Z,94.80
2017-09-02T21:57:11.579Z,94.90
2017-09-02T21:59:39.998Z,94.90
2017-09-02T22:02:08.446Z,94.90
2017-09-02T22:04:36.909Z,94.40
2017-09-02T22:07:05.301Z,94.50
2017-09-02T22:09:33.712Z,94.10
2017-09-02T22:12:02.100Z,94.50
2017-09-02T22:14:30.528Z,95.10
2017-09-02T22:16:58.950Z,95.10
2017-09-02T22:19:27.454Z,95.40
2017-09-02T22:21:55.849Z,94.90
2017-09-02T22:24:24.276Z,94.60
2017-09-02T22:26:52.796Z,94.50
2017-09-02T22:29:21.227Z,94.50
2017-09-02T22:31:49.733Z,95.00
2017-09-02T22:34:18.155Z,95.20
2017-09-02T22:36:46.571Z,95.20
2017-09-02T22:39:15.048Z,94.80
2017-09-02T22:41:43.513Z,95.30
2017-09-02T22:44:11.898Z,95.70
2017-09-02T22:46:40.277Z,96.00
2017-09-02T22:49:08.708Z,95.70
2017-09-02T22:51:37.179Z,95.60
2017-09-02T22:54:05.719Z,95.70
2017-09-02T22:56:34.334Z,96.00
2017-09-02T22:59:02.734Z,96.30
2017-09-02T23:01:31.119Z,96.40
2017-09-02T23:03:59.564Z,95.90
2017-09-02T23:06:27.992Z,96.00
2017-09-02T23:08:57.578Z,96.30
2017-09-02T23:11:25.958Z,95.80
2017-09-02T23:13:54.324Z,95.80
2017-09-02T23:16:22.735Z,95.50
2017-09-02T23:18:51.154Z,96.00
2017-09-02T23:21:19.615Z,95.60
2017-09-02T23:23:48.059Z,95.70
2017-09-02T23:26:16.541Z,96.20
2017-09-02T23:28:44.916Z,96.30
2017-09-02T23:31:13.389Z,96.30
2017-09-02T23:33:41.832Z,96.10
2017-09-02T23:36:10.288Z,96.30
2017-09-02T23:38:38.703Z,96.60
2017-09-02T23:41:07.107Z,96.80
2017-09-02T23:43:35.578Z,96.60
2017-09-02T23:46:04.014Z,96.60
2017-09-02T23:48:32.511Z,96.40
2017-09-02T23:51:00.974Z,96.20
2017-09-02T23:53:29.390Z,96.10
2017-09-02T23:55:57.827Z,96.30
2017-09-02T23:58:26.221Z,96.50
